Hillsdale, MI

8:51 PM EST on November 24, 2014 (GMT -0500)
Branch County Memorial | Change Station
CLOSE
Current Station
Airport
Location: Coldwater,
Elevation: 958 ft
Nearby Weather Stations

Elev 958 ft 41.93 °N, 85.05 °W | Updated 17 minutes ago

Overcast
Overcast
33 °F
Feels Like 21 °F
N
22
Wind Variable Wind from WSW
Gusts 34 mph

Today
High -- | Low -- °F
--% Chance of Precip.
Yesterday
High -- | Low -- °F
Precip. -- in
7:38 AM 5:11 PM
Waxing Crescent, 8% visible
Pressure 29.65 in
Visibility 10.0 miles
Clouds Overcast 1300 ft
Windchill 21 °F
Dew Point 30 °F
Humidity 89%
Rainfall 0.00 in
Snow Depth Not available.
UV 0 out of 12
Pollen .10 out of 12
Air Quality Not available.
Flu Activity Not available.
METAR KOEB 250134Z AUTO 24019G30KT 10SM OVC013 01/M01 A2965 RMK AO2 T00061011

More Conditions Fewer Conditions

Pressure 29.65 in
Visibility 10.0 miles
Clouds Overcast 1300 ft
Windchill 21 °F
Dew Point 30 °F
Humidity 89%
Rainfall 0.00 in
Snow Depth Not available.
UV 0 out of 12
Pollen .10 out of 12
Air Quality Not available.
Flu Activity Not available.
METAR KOEB 250134Z AUTO 24019G30KT 10SM OVC013 01/M01 A2965 RMK AO2 T00061011

More Conditions Fewer Conditions

10-Day Weather Forecast

Almanac

Astronomy

Nov. 24, 2014 Rise Set
Actual Time
Civil Twilight
Nautical Twilight
Astronomical Twilight
Moon
Length of Visible Light
Length of Day
Tomorrow will be .
, % of the Moon is Illuminated

Today's Extremes

State Highs State Lows

Community

WunderPhotos

Upload Photos

1,773,459 photos uploaded!

WunderBlogs® & News

Nearby

Air Quality

  Air Quality AQ Index Pollutant
Not available.

Snow Depth

Station Depth Elevation

Earthquake Activity

City Distance Mag. Time & Date
Minimum magnitude displayed is 2.5.

Coastal Water Temperatures

Place Temperature

Nearby Weather Stations